Time;durP1;ratioP1;P1;durP2;ratioP2;P2;SDS_P1;SDS_P2;PMS_P1;PMS_P2;Temp;Humidity;BMP_temperature;BMP_pressure;BME280_temperature;BME280_humidity;BME280_pressure;Samples;Min_cycle;Max_cycle;Signal;HPM_P1;HPM_P2
2022/06/29 00:02:13;;;;;;;6.07;1.30;;;21.50;63.30;;;;;;5013575;28;20029;-65
2022/06/29 00:04:39;;;;;;;7.43;1.55;;;21.50;63.30;;;;;;5006469;28;20037;-65
2022/06/29 00:07:05;;;;;;;4.25;1.08;;;21.50;63.30;;;;;;5005862;28;20025;-65
2022/06/29 00:09:32;;;;;;;6.25;1.42;;;21.50;63.40;;;;;;5028929;28;20080;-65
2022/06/29 00:11:58;;;;;;;4.68;1.20;;;21.50;63.40;;;;;;5004504;28;20038;-65
2022/06/29 00:14:24;;;;;;;5.65;1.35;;;21.40;63.30;;;;;;5001367;28;20037;-64
2022/06/29 00:16:51;;;;;;;4.30;1.10;;;21.50;63.50;;;;;;5006858;28;20545;-65
2022/06/29 00:19:18;;;;;;;4.32;1.20;;;21.50;63.40;;;;;;5005613;28;20122;-65
2022/06/29 00:21:44;;;;;;;2.85;1.20;;;21.40;63.50;;;;;;5000424;28;20117;-65
2022/06/29 00:24:10;;;;;;;6.43;1.40;;;21.40;63.40;;;;;;5006077;28;20033;-65
2022/06/29 00:26:36;;;;;;;4.22;1.20;;;21.40;63.50;;;;;;5007399;28;20025;-64
2022/06/29 00:29:04;;;;;;;5.03;1.20;;;21.40;63.50;;;;;;5006400;28;20519;-65
2022/06/29 00:31:31;;;;;;;4.65;1.20;;;21.40;63.50;;;;;;5005814;28;20088;-64
2022/06/29 00:33:57;;;;;;;5.10;1.10;;;21.40;63.50;;;;;;5007893;28;20061;-65
2022/06/29 00:36:25;;;;;;;5.53;1.20;;;21.40;63.50;;;;;;5006590;28;20026;-65
2022/06/29 00:38:51;;;;;;;3.35;1.10;;;21.40;63.60;;;;;;5005465;28;20525;-64
2022/06/29 00:41:18;;;;;;;3.70;0.98;;;21.40;63.50;;;;;;5006699;28;20127;-64
2022/06/29 00:43:47;;;;;;;4.63;1.10;;;21.40;63.60;;;;;;5004839;28;20427;-65
2022/06/29 00:46:14;;;;;;;3.65;1.25;;;21.40;63.30;;;;;;5006953;28;20495;-65
2022/06/29 00:48:40;;;;;;;6.82;1.20;;;21.40;63.50;;;;;;5014325;28;20034;-65
2022/06/29 00:51:10;;;;;;;5.22;1.30;;;21.40;63.40;;;;;;5003275;28;20407;-65
2022/06/29 00:53:39;;;;;;;4.45;1.33;;;21.40;63.50;;;;;;5001182;28;20053;-64
2022/06/29 00:56:10;;;;;;;6.20;1.33;;;21.30;63.30;;;;;;4990634;28;20072;-65
2022/06/29 00:58:36;;;;;;;5.15;1.40;;;21.30;63.50;;;;;;4997360;28;20620;-65
2022/06/29 01:01:03;;;;;;;5.13;1.17;;;21.30;63.40;;;;;;5005565;28;20030;-65
2022/06/29 01:03:32;;;;;;;4.40;0.90;;;21.40;63.50;;;;;;5007563;28;20076;-64
2022/06/29 01:06:00;;;;;;;5.28;1.30;;;21.30;63.40;;;;;;5012960;28;20052;-64
2022/06/29 01:08:27;;;;;;;4.97;1.08;;;21.30;63.40;;;;;;5003859;28;20030;-64
2022/06/29 01:10:53;;;;;;;5.68;1.30;;;21.30;63.40;;;;;;5006723;28;20034;-65
2022/06/29 01:13:19;;;;;;;4.68;1.02;;;21.30;63.30;;;;;;5005640;28;20073;-65
2022/06/29 01:15:45;;;;;;;4.05;1.10;;;21.30;63.30;;;;;;5007509;28;20554;-64
2022/06/29 01:18:12;;;;;;;4.88;1.20;;;21.30;63.30;;;;;;5006249;28;20375;-64
2022/06/29 01:20:38;;;;;;;5.60;1.45;;;21.30;63.40;;;;;;5006514;28;20038;-64
2022/06/29 01:23:05;;;;;;;3.88;1.00;;;21.30;63.40;;;;;;5005754;28;20022;-64
2022/06/29 01:25:33;;;;;;;4.95;1.30;;;21.30;63.40;;;;;;5005604;28;20022;-64
2022/06/29 01:27:59;;;;;;;3.92;1.00;;;21.30;63.30;;;;;;5006467;28;20026;-64
2022/06/29 01:30:26;;;;;;;5.70;1.10;;;21.30;63.40;;;;;;5007641;28;20164;-65
2022/06/29 01:32:53;;;;;;;3.38;1.08;;;21.20;63.20;;;;;;5005641;28;20097;-65
2022/06/29 01:35:22;;;;;;;5.43;1.23;;;21.20;63.20;;;;;;5003488;28;20030;-65
2022/06/29 01:37:51;;;;;;;3.70;1.10;;;21.20;63.30;;;;;;5005867;28;20041;-64
2022/06/29 01:40:18;;;;;;;4.80;1.38;;;21.20;63.30;;;;;;5005283;28;20053;-64
2022/06/29 01:42:46;;;;;;;4.20;1.20;;;21.20;63.30;;;;;;5002923;28;20080;-64
2022/06/29 01:45:12;;;;;;;2.92;0.90;;;21.20;63.30;;;;;;5006059;28;20277;-64
2022/06/29 01:47:38;;;;;;;1.75;0.90;;;21.20;64.40;;;;;;5015067;28;20507;-65
2022/06/29 01:50:05;;;;;;;4.13;1.08;;;21.20;63.30;;;;;;5004187;28;20038;-64
2022/06/29 01:52:31;;;;;;;5.93;1.52;;;21.20;63.30;;;;;;5002106;28;20022;-64
2022/06/29 01:54:57;;;;;;;5.25;1.10;;;21.20;63.30;;;;;;5005889;28;20477;-65
2022/06/29 01:57:23;;;;;;;4.80;1.23;;;21.20;63.30;;;;;;5004957;28;20030;-65
2022/06/29 01:59:50;;;;;;;4.60;1.20;;;21.10;63.30;;;;;;5003413;28;20632;-65
2022/06/29 02:02:17;;;;;;;3.58;1.20;;;21.10;63.20;;;;;;5017842;28;20033;-64
2022/06/29 02:04:43;;;;;;;4.38;0.90;;;21.10;63.20;;;;;;5003501;28;20054;-65
2022/06/29 02:07:10;;;;;;;2.72;0.90;;;21.10;63.20;;;;;;5004973;28;20352;-65
2022/06/29 02:09:35;;;;;;;4.55;1.58;;;21.10;63.30;;;;;;5005612;28;20160;-64
2022/06/29 02:12:03;;;;;;;3.65;0.95;;;21.10;63.20;;;;;;5003166;28;20685;-65
2022/06/29 02:14:30;;;;;;;4.93;1.02;;;21.10;63.20;;;;;;5004803;28;20028;-65
2022/06/29 02:16:57;;;;;;;4.30;1.08;;;21.10;63.30;;;;;;5006428;28;20046;-64
2022/06/29 02:19:23;;;;;;;4.78;1.30;;;21.10;63.20;;;;;;5006180;28;20486;-65
2022/06/29 02:21:49;;;;;;;4.35;1.10;;;21.10;63.30;;;;;;5005233;28;20057;-64
2022/06/29 02:24:15;;;;;;;4.25;1.10;;;21.10;63.30;;;;;;5005115;28;20782;-64
2022/06/29 02:26:40;;;;;;;3.58;0.90;;;21.00;63.20;;;;;;5005477;28;20026;-64
2022/06/29 02:29:07;;;;;;;3.30;1.08;;;21.00;63.20;;;;;;5005712;28;20030;-65
2022/06/29 02:37:03;;;;;;;4.20;1.15;;;21.00;63.20;;;;;;5001737;28;20085;-65
2022/06/29 02:39:31;;;;;;;3.78;0.98;;;21.00;63.30;;;;;;5007316;28;20030;-65
2022/06/29 02:41:59;;;;;;;4.68;1.00;;;21.00;63.30;;;;;;5018569;28;20414;-64
2022/06/29 02:44:26;;;;;;;4.80;1.20;;;21.00;63.30;;;;;;5004965;28;20438;-64
2022/06/29 02:46:55;;;;;;;4.13;1.20;;;21.00;63.30;;;;;;5004607;28;20038;-65
2022/06/29 02:49:21;;;;;;;4.15;1.10;;;21.00;63.20;;;;;;4994007;28;20072;-65
2022/06/29 02:51:47;;;;;;;2.45;0.80;;;21.00;63.20;;;;;;5014214;28;20038;-64
2022/06/29 02:54:13;;;;;;;5.53;1.10;;;21.00;63.30;;;;;;5018814;28;20030;-64
2022/06/29 02:56:43;;;;;;;4.38;1.27;;;20.90;63.20;;;;;;5005313;28;20077;-64
2022/06/29 02:59:09;;;;;;;2.80;1.05;;;20.90;63.20;;;;;;5011976;28;20030;-64
2022/06/29 03:01:35;;;;;;;4.15;1.05;;;20.90;63.20;;;;;;5018123;28;20514;-65
2022/06/29 03:04:01;;;;;;;2.65;0.98;;;21.00;63.20;;;;;;5002888;28;20081;-64
2022/06/29 03:06:27;;;;;;;3.60;1.20;;;20.90;63.20;;;;;;5004413;28;20450;-65
2022/06/29 03:08:53;;;;;;;5.25;1.00;;;20.90;63.20;;;;;;5005012;28;20101;-64
2022/06/29 03:11:19;;;;;;;4.55;1.52;;;20.90;63.20;;;;;;5002229;28;20034;-64
2022/06/29 03:13:45;;;;;;;4.93;1.40;;;20.90;63.20;;;;;;5004787;28;20448;-64
2022/06/29 03:16:11;;;;;;;2.60;0.90;;;20.90;63.20;;;;;;5002584;28;20065;-65
2022/06/29 03:18:37;;;;;;;3.78;1.20;;;20.90;63.20;;;;;;5005311;28;20026;-63
2022/06/29 03:21:04;;;;;;;3.80;1.10;;;20.90;63.30;;;;;;4999565;28;20030;-65
2022/06/29 03:23:30;;;;;;;1.95;0.90;;;20.90;63.30;;;;;;5003249;28;20034;-64
2022/06/29 03:25:56;;;;;;;4.10;1.10;;;20.90;63.20;;;;;;5004812;28;20105;-64
2022/06/29 03:28:22;;;;;;;6.15;1.33;;;20.90;63.30;;;;;;5008094;28;20026;-65
2022/06/29 03:30:49;;;;;;;3.20;1.27;;;20.90;63.30;;;;;;5008682;28;20100;-64
2022/06/29 03:33:16;;;;;;;2.42;1.10;;;20.90;63.30;;;;;;5022735;28;20045;-64
2022/06/29 03:35:42;;;;;;;3.85;1.10;;;20.80;63.30;;;;;;5020685;28;20034;-64
2022/06/29 03:38:08;;;;;;;3.80;1.10;;;20.90;63.30;;;;;;5021517;28;20048;-64
2022/06/29 03:40:34;;;;;;;4.05;1.30;;;20.80;63.30;;;;;;5007587;28;20053;-64
2022/06/29 03:43:00;;;;;;;5.45;0.90;;;20.80;63.40;;;;;;5007035;28;20537;-65
2022/06/29 03:45:27;;;;;;;5.68;1.40;;;20.80;63.30;;;;;;5006837;28;20435;-65
2022/06/29 03:47:55;;;;;;;3.40;0.93;;;20.80;63.30;;;;;;5014668;28;20025;-64
2022/06/29 03:50:21;;;;;;;3.25;0.77;;;20.80;63.40;;;;;;5008380;28;20523;-64
2022/06/29 03:52:49;;;;;;;5.72;1.20;;;20.80;63.40;;;;;;5016685;28;20060;-64
2022/06/29 03:55:16;;;;;;;3.33;1.00;;;20.80;63.40;;;;;;5007934;28;20030;-64
2022/06/29 03:57:42;;;;;;;3.58;1.08;;;20.80;63.50;;;;;;5007823;28;20520;-64
2022/06/29 04:00:09;;;;;;;3.42;1.08;;;20.80;63.40;;;;;;5022418;28;20026;-64
2022/06/29 04:02:38;;;;;;;4.32;1.10;;;20.80;63.50;;;;;;5024056;28;20030;-64
2022/06/29 04:05:04;;;;;;;6.05;1.50;;;20.80;63.50;;;;;;5006614;28;20061;-64
2022/06/29 04:07:31;;;;;;;4.47;1.13;;;20.80;63.50;;;;;;5015588;28;20019;-64
2022/06/29 04:09:59;;;;;;;3.97;1.27;;;20.80;63.50;;;;;;5015936;28;20085;-64
2022/06/29 04:12:33;;;;;;;4.88;1.40;;;20.80;63.60;;;;;;5008759;28;20087;-65
2022/06/29 04:14:59;;;;;;;4.63;1.00;;;20.80;63.60;;;;;;5006152;28;20585;-64
2022/06/29 04:17:25;;;;;;;2.92;0.90;;;20.80;63.60;;;;;;5005357;28;20053;-64
2022/06/29 04:19:51;;;;;;;3.15;1.08;;;20.70;63.50;;;;;;5007078;28;20473;-65
2022/06/29 04:22:17;;;;;;;1.83;0.98;;;20.70;63.50;;;;;;5008177;28;20044;-64
2022/06/29 04:24:43;;;;;;;4.00;1.10;;;20.70;63.50;;;;;;5006449;28;20022;-64
2022/06/29 04:27:09;;;;;;;2.92;1.10;;;20.70;63.60;;;;;;5007586;28;20559;-64
2022/06/29 04:29:35;;;;;;;3.83;1.20;;;20.70;63.50;;;;;;5006586;28;20033;-64
2022/06/29 04:32:01;;;;;;;5.25;1.27;;;20.70;63.60;;;;;;5007379;28;20030;-64
2022/06/29 04:34:27;;;;;;;2.38;0.80;;;20.70;63.70;;;;;;5004656;28;20029;-64
2022/06/29 04:36:52;;;;;;;2.55;1.10;;;20.70;63.60;;;;;;5007336;28;20121;-64
2022/06/29 04:39:18;;;;;;;4.22;1.30;;;20.70;63.70;;;;;;5005480;28;20128;-64
2022/06/29 04:41:44;;;;;;;2.35;1.08;;;20.70;63.60;;;;;;5005581;28;20034;-64
2022/06/29 04:44:09;;;;;;;3.55;0.90;;;20.70;63.70;;;;;;5006885;28;20590;-64
2022/06/29 04:46:35;;;;;;;2.85;1.10;;;20.60;63.60;;;;;;5004546;28;20116;-66
2022/06/29 04:49:01;;;;;;;2.47;1.00;;;20.60;63.60;;;;;;5006926;28;20034;-64
2022/06/29 04:51:28;;;;;;;3.35;1.20;;;20.60;63.70;;;;;;5005061;28;20041;-64
2022/06/29 04:53:56;;;;;;;3.90;1.02;;;20.60;63.60;;;;;;5000935;28;20030;-64
2022/06/29 04:56:24;;;;;;;3.35;1.10;;;20.60;63.60;;;;;;5006936;28;20037;-64
2022/06/29 04:58:51;;;;;;;3.85;1.20;;;20.60;63.60;;;;;;4987666;28;20402;-64
2022/06/29 05:01:18;;;;;;;4.00;1.20;;;20.60;63.60;;;;;;5002912;28;20042;-64
2022/06/29 05:03:43;;;;;;;4.32;1.20;;;20.60;63.60;;;;;;5005675;28;20053;-64
2022/06/29 05:06:09;;;;;;;3.25;1.10;;;20.60;63.60;;;;;;5004105;28;20022;-64
2022/06/29 05:08:35;;;;;;;3.53;1.20;;;20.60;63.60;;;;;;5001874;28;20109;-64
2022/06/29 05:11:01;;;;;;;3.55;1.10;;;20.60;63.70;;;;;;5005903;28;20042;-64
2022/06/29 05:13:26;;;;;;;3.83;0.95;;;20.60;63.70;;;;;;5004853;28;20030;-64
2022/06/29 05:15:52;;;;;;;4.55;1.17;;;20.60;63.70;;;;;;5005106;28;20053;-64
2022/06/29 05:18:18;;;;;;;4.20;1.33;;;20.60;63.80;;;;;;5006003;28;20128;-64
2022/06/29 05:20:44;;;;;;;2.92;0.98;;;20.60;63.80;;;;;;5005447;28;20057;-64
2022/06/29 05:23:10;;;;;;;5.05;1.25;;;20.60;63.90;;;;;;5003431;28;20022;-64
2022/06/29 05:25:36;;;;;;;3.72;1.20;;;20.60;63.90;;;;;;5004010;28;20040;-64
2022/06/29 05:28:02;;;;;;;1.95;0.95;;;20.60;63.80;;;;;;5002529;28;20030;-64
2022/06/29 05:30:27;;;;;;;4.10;1.10;;;20.60;64.10;;;;;;5006833;28;20048;-64
2022/06/29 05:32:53;;;;;;;5.53;1.17;;;20.60;64.00;;;;;;5006348;28;20521;-64
2022/06/29 05:35:19;;;;;;;5.18;1.15;;;20.60;63.90;;;;;;5005679;28;20501;-64
2022/06/29 05:37:44;;;;;;;4.47;1.20;;;20.60;63.80;;;;;;5004746;28;20022;-64
2022/06/29 05:40:10;;;;;;;5.03;1.00;;;20.60;63.80;;;;;;5004531;28;20492;-64
2022/06/29 05:42:36;;;;;;;4.70;1.10;;;20.60;63.80;;;;;;5004877;28;20067;-64
2022/06/29 05:45:02;;;;;;;4.22;1.10;;;20.60;63.80;;;;;;5004882;28;20042;-64
2022/06/29 05:47:28;;;;;;;4.57;1.15;;;20.60;65.00;;;;;;5004259;28;20018;-64
2022/06/29 05:49:57;;;;;;;5.28;1.20;;;20.60;63.90;;;;;;5006059;28;20026;-64
2022/06/29 05:52:23;;;;;;;4.05;1.10;;;20.60;63.80;;;;;;5006907;28;20014;-64
2022/06/29 05:54:49;;;;;;;5.18;1.33;;;20.60;63.80;;;;;;5003211;28;20026;-64
2022/06/29 05:57:14;;;;;;;3.10;1.10;;;20.60;63.80;;;;;;5005515;28;20033;-64
2022/06/29 05:59:40;;;;;;;4.07;1.30;;;20.60;63.90;;;;;;5004438;28;20026;-64
2022/06/29 06:02:06;;;;;;;4.88;1.27;;;20.60;64.00;;;;;;5004354;28;20141;-64
2022/06/29 06:04:31;;;;;;;5.50;1.00;;;20.60;63.90;;;;;;5005222;28;20125;-64
2022/06/29 06:06:57;;;;;;;2.47;1.10;;;20.60;63.90;;;;;;5005666;28;20037;-64
2022/06/29 06:09:26;;;;;;;3.65;1.15;;;20.60;63.80;;;;;;5006439;28;20037;-64
2022/06/29 06:11:54;;;;;;;4.25;1.20;;;20.60;63.90;;;;;;5006237;28;20036;-64
2022/06/29 06:14:19;;;;;;;5.85;1.20;;;20.60;63.80;;;;;;5003342;28;20289;-65
2022/06/29 06:16:45;;;;;;;4.30;1.02;;;20.60;63.80;;;;;;5004744;28;20069;-64
2022/06/29 06:19:11;;;;;;;5.60;1.17;;;20.60;63.80;;;;;;5004548;28;20042;-64
2022/06/29 06:21:37;;;;;;;2.65;1.00;;;20.60;63.80;;;;;;5004855;28;20045;-64
2022/06/29 06:24:03;;;;;;;5.10;1.35;;;20.60;63.80;;;;;;5004342;28;20033;-64
2022/06/29 06:26:29;;;;;;;4.50;1.05;;;20.60;63.80;;;;;;5006433;28;20037;-64
2022/06/29 06:28:55;;;;;;;5.43;1.42;;;20.60;63.80;;;;;;5003966;28;20115;-64
2022/06/29 06:31:21;;;;;;;4.57;1.48;;;20.60;63.80;;;;;;5004127;28;20073;-64
2022/06/29 06:33:46;;;;;;;5.57;1.25;;;20.60;63.80;;;;;;5005564;28;20026;-64
2022/06/29 06:36:12;;;;;;;5.68;1.10;;;20.60;63.80;;;;;;5004677;28;20036;-64
2022/06/29 06:38:38;;;;;;;2.20;0.90;;;20.60;63.70;;;;;;5003520;28;20022;-64
2022/06/29 06:41:21;;;;;;;4.50;1.10;;;20.60;63.70;;;;;;5005838;28;20033;-64
2022/06/29 06:43:48;;;;;;;3.92;1.27;;;20.60;63.70;;;;;;5004950;28;20053;-64
2022/06/29 06:46:14;;;;;;;3.40;0.98;;;20.60;64.80;;;;;;5003954;28;20029;-64
2022/06/29 06:48:40;;;;;;;4.50;1.45;;;20.60;63.80;;;;;;5006345;28;20022;-64
2022/06/29 06:51:05;;;;;;;5.53;1.38;;;20.60;63.80;;;;;;5004521;28;20092;-64
2022/06/29 06:53:31;;;;;;;3.55;1.20;;;20.60;63.80;;;;;;5006321;28;20038;-64
2022/06/29 06:55:57;;;;;;;4.90;1.40;;;20.60;63.80;;;;;;5003110;28;20623;-64
2022/06/29 06:58:23;;;;;;;3.45;1.00;;;20.60;63.70;;;;;;5003435;28;20101;-64
2022/06/29 07:00:48;;;;;;;3.00;1.00;;;20.60;63.70;;;;;;5007989;28;20061;-64
2022/06/29 07:03:14;;;;;;;5.80;1.13;;;20.60;63.80;;;;;;5008193;28;20021;-64
2022/06/29 07:05:39;;;;;;;5.15;1.10;;;20.60;63.80;;;;;;5008102;28;20375;-64
2022/06/29 07:08:05;;;;;;;6.18;1.55;;;20.60;63.80;;;;;;5008844;28;20021;-64
2022/06/29 07:10:31;;;;;;;5.50;1.40;;;20.60;63.80;;;;;;5008538;28;20048;-64
2022/06/29 07:12:57;;;;;;;4.57;1.40;;;20.60;63.70;;;;;;5006340;28;20836;-64
2022/06/29 07:15:22;;;;;;;5.68;1.33;;;20.60;63.70;;;;;;5008411;28;20117;-64
2022/06/29 07:17:48;;;;;;;4.93;1.20;;;20.60;63.60;;;;;;5009405;28;20030;-64
2022/06/29 07:20:13;;;;;;;3.65;1.02;;;20.60;63.60;;;;;;5008575;28;20391;-64
2022/06/29 07:22:39;;;;;;;3.13;1.20;;;20.70;63.70;;;;;;5008293;28;20560;-64
2022/06/29 07:25:05;;;;;;;3.28;0.95;;;20.60;63.80;;;;;;5007755;28;20497;-64
2022/06/29 07:27:31;;;;;;;3.92;1.00;;;20.60;63.70;;;;;;5008905;28;20026;-64
2022/06/29 07:29:56;;;;;;;4.53;1.10;;;20.60;63.70;;;;;;5008114;28;20040;-64
2022/06/29 07:32:22;;;;;;;4.30;1.35;;;20.60;63.80;;;;;;5024145;28;20044;-64
2022/06/29 07:34:48;;;;;;;2.97;0.90;;;20.60;63.70;;;;;;5008078;28;20029;-64
2022/06/29 07:37:14;;;;;;;3.80;1.17;;;20.60;63.70;;;;;;5006366;28;20101;-64
2022/06/29 07:39:39;;;;;;;2.92;1.15;;;20.60;63.70;;;;;;5006382;28;20026;-64
2022/06/29 07:42:05;;;;;;;6.07;1.40;;;20.60;63.70;;;;;;5008590;28;20022;-64
2022/06/29 07:44:31;;;;;;;5.43;1.23;;;20.60;63.70;;;;;;5008943;28;20033;-64
2022/06/29 07:46:56;;;;;;;4.03;0.93;;;20.60;63.70;;;;;;5005660;28;20073;-64
2022/06/29 07:49:23;;;;;;;5.05;1.20;;;20.60;63.70;;;;;;5008352;28;20437;-64
2022/06/29 07:51:48;;;;;;;4.75;1.20;;;20.60;63.70;;;;;;5006459;28;20181;-64
2022/06/29 07:54:14;;;;;;;5.85;1.30;;;20.60;63.80;;;;;;5003295;28;20084;-64
2022/06/29 07:56:40;;;;;;;4.97;1.23;;;20.60;63.70;;;;;;5008976;28;20030;-64
2022/06/29 07:59:06;;;;;;;3.33;1.15;;;20.60;63.70;;;;;;5008843;28;20045;-64
2022/06/29 08:01:31;;;;;;;3.40;1.02;;;20.60;63.70;;;;;;5007587;28;20057;-64
2022/06/29 08:03:57;;;;;;;4.68;1.40;;;20.60;63.70;;;;;;5006695;28;20034;-64
2022/06/29 08:06:23;;;;;;;4.75;1.17;;;20.60;63.80;;;;;;5007831;28;20038;-64
2022/06/29 08:08:49;;;;;;;3.42;1.10;;;20.60;63.80;;;;;;5005919;28;20034;-63
2022/06/29 08:11:14;;;;;;;2.08;0.90;;;20.60;63.80;;;;;;5006413;28;20042;-64
2022/06/29 08:13:40;;;;;;;4.80;1.10;;;20.70;63.80;;;;;;5008243;28;20029;-64
2022/06/29 08:16:06;;;;;;;3.70;1.10;;;20.70;63.70;;;;;;5006909;28;20112;-64
2022/06/29 08:18:35;;;;;;;5.07;1.27;;;20.70;63.70;;;;;;5007843;28;20030;-64
2022/06/29 08:21:02;;;;;;;4.32;1.25;;;20.70;63.80;;;;;;5008108;28;20026;-64
2022/06/29 08:23:28;;;;;;;4.10;0.93;;;20.60;63.70;;;;;;5001926;28;20387;-64
2022/06/29 08:25:54;;;;;;;3.00;1.00;;;20.60;63.80;;;;;;5007430;28;20033;-64
2022/06/29 08:28:19;;;;;;;3.97;1.10;;;20.60;63.70;;;;;;5007160;28;20440;-64
2022/06/29 08:30:46;;;;;;;3.35;1.05;;;20.70;63.60;;;;;;5007455;28;20099;-64
2022/06/29 08:33:12;;;;;;;4.53;1.33;;;20.70;63.70;;;;;;5007595;28;20026;-64
2022/06/29 08:35:38;;;;;;;3.42;1.08;;;20.70;63.70;;;;;;5004614;28;20482;-64
2022/06/29 08:38:03;;;;;;;4.32;1.13;;;20.70;63.60;;;;;;5006451;28;20034;-64
2022/06/29 08:40:35;;;;;;;3.50;1.10;;;20.70;63.70;;;;;;5005098;28;20156;-64
2022/06/29 08:43:00;;;;;;;5.88;1.10;;;20.70;63.80;;;;;;5015332;28;20121;-64
2022/06/29 08:45:26;;;;;;;3.47;1.10;;;20.80;64.00;;;;;;5007014;28;20097;-64
2022/06/29 08:47:52;;;;;;;4.07;1.10;;;20.70;64.10;;;;;;5007944;28;20111;-64
2022/06/29 08:50:17;;;;;;;2.30;1.10;;;20.80;64.10;;;;;;5005995;28;20041;-64
2022/06/29 08:52:43;;;;;;;4.53;1.38;;;20.70;64.10;;;;;;5006677;28;20030;-64
2022/06/29 08:55:09;;;;;;;4.10;1.15;;;20.70;64.20;;;;;;5000591;28;20041;-64
2022/06/29 08:57:36;;;;;;;3.75;1.10;;;20.70;64.10;;;;;;5005360;28;20072;-64
2022/06/29 09:00:02;;;;;;;4.35;1.20;;;20.70;64.10;;;;;;5007248;28;20022;-64
2022/06/29 09:02:28;;;;;;;3.28;1.05;;;20.70;64.10;;;;;;5007154;28;20018;-63
2022/06/29 09:04:54;;;;;;;3.53;1.13;;;20.70;64.10;;;;;;5006681;28;20026;-64
2022/06/29 09:07:20;;;;;;;3.42;1.05;;;20.70;64.10;;;;;;5005143;28;20512;-63
2022/06/29 09:10:03;;;;;;;2.95;1.13;;;20.70;64.00;;;;;;5005334;28;20026;-64
2022/06/29 09:12:29;;;;;;;2.70;0.98;;;20.70;64.00;;;;;;5002894;28;20103;-64
2022/06/29 09:14:55;;;;;;;3.28;1.10;;;20.70;64.10;;;;;;5005959;28;20569;-64
2022/06/29 09:17:20;;;;;;;3.35;1.08;;;20.70;64.10;;;;;;5003912;28;20030;-64
2022/06/29 09:19:47;;;;;;;3.30;1.10;;;20.70;64.00;;;;;;5012910;28;20102;-64
2022/06/29 09:22:12;;;;;;;4.88;1.10;;;20.70;63.90;;;;;;5005562;28;20041;-64
2022/06/29 09:24:38;;;;;;;3.22;1.00;;;20.70;63.90;;;;;;5003754;28;20033;-64
2022/06/29 09:27:08;;;;;;;2.40;0.95;;;20.80;63.90;;;;;;5006688;28;20050;-64
2022/06/29 09:29:35;;;;;;;4.03;1.10;;;20.80;63.80;;;;;;5007239;28;20079;-64
2022/06/29 09:32:04;;;;;;;3.55;1.20;;;20.80;63.90;;;;;;5005701;28;20044;-63
2022/06/29 09:34:33;;;;;;;2.25;0.98;;;20.80;63.60;;;;;;5006350;28;20049;-64
2022/06/29 09:37:00;;;;;;;4.65;1.10;;;20.90;63.70;;;;;;5005421;28;20398;-64
2022/06/29 09:39:34;;;;;;;2.63;1.05;;;20.90;63.60;;;;;;5006708;28;20037;-64
2022/06/29 09:42:01;;;;;;;2.15;1.00;;;20.90;63.50;;;;;;5002250;28;20030;-64
2022/06/29 09:44:28;;;;;;;2.95;1.02;;;20.90;63.50;;;;;;5002093;28;20030;-64
2022/06/29 09:46:55;;;;;;;5.05;1.15;;;20.90;63.40;;;;;;5006778;28;20088;-64
2022/06/29 09:49:29;;;;;;;2.83;1.00;;;20.90;63.40;;;;;;5004611;28;20033;-64
2022/06/29 09:51:57;;;;;;;2.35;1.08;;;20.90;63.60;;;;;;5004712;28;20533;-64
2022/06/29 09:55:06;;;;;;;4.10;1.10;;;20.90;63.70;;;;;;5007087;28;20049;-64
2022/06/29 09:57:32;;;;;;;2.22;1.00;;;20.90;63.70;;;;;;5005348;28;20033;-64
2022/06/29 10:02:53;;;;;;;3.15;1.17;;;20.90;63.70;;;;;;4999905;28;20036;-64
2022/06/29 10:05:23;;;;;;;3.78;1.00;;;20.90;63.70;;;;;;5002479;28;20034;-64
2022/06/29 10:07:52;;;;;;;3.10;0.90;;;20.90;63.70;;;;;;5004946;28;20041;-64
2022/06/29 10:10:19;;;;;;;3.45;1.10;;;20.90;63.70;;;;;;5005669;28;20083;-64
2022/06/29 10:15:57;;;;;;;3.38;0.90;;;20.80;63.70;;;;;;5002460;28;20100;-64
2022/06/29 10:18:22;;;;;;;2.17;0.88;;;20.80;63.70;;;;;;5004878;28;20510;-64
2022/06/29 10:20:48;;;;;;;2.90;0.75;;;20.80;63.80;;;;;;5003532;28;20221;-64
2022/06/29 10:23:52;;;;;;;3.58;1.00;;;20.80;63.80;;;;;;5005190;28;20037;-64
2022/06/29 10:26:35;;;;;;;1.52;0.70;;;20.80;63.80;;;;;;5003640;28;20398;-64
2022/06/29 10:29:09;;;;;;;3.45;1.10;;;20.90;63.80;;;;;;5005824;28;20038;-64
2022/06/29 10:31:53;;;;;;;2.75;0.70;;;20.90;64.00;;;;;;5006517;28;20053;-64
2022/06/29 10:34:31;;;;;;;3.88;1.00;;;20.90;64.20;;;;;;5006557;28;20033;-64
2022/06/29 10:37:02;;;;;;;4.57;1.65;;;20.90;64.00;;;;;;5004742;28;20498;-64
2022/06/29 10:39:48;;;;;;;7.30;3.42;;;21.00;64.10;;;;;;5007946;28;20022;-64
2022/06/29 10:45:16;;;;;;;6.40;3.25;;;20.90;64.00;;;;;;5011277;28;20036;-64
2022/06/29 10:47:54;;;;;;;6.68;3.33;;;21.00;64.30;;;;;;5006888;28;20497;-64
2022/06/29 10:50:23;;;;;;;5.93;3.10;;;20.90;64.20;;;;;;5009486;28;20084;-64
2022/06/29 10:52:49;;;;;;;5.53;2.60;;;20.90;64.30;;;;;;5006111;28;20084;-64
2022/06/29 10:55:16;;;;;;;4.53;2.40;;;20.90;64.30;;;;;;5006052;28;20032;-64
2022/06/29 10:57:42;;;;;;;6.18;2.70;;;21.00;64.40;;;;;;5009184;28;20030;-64
2022/06/29 11:00:09;;;;;;;5.00;2.60;;;21.00;64.20;;;;;;5008429;28;20018;-64
2022/06/29 11:02:37;;;;;;;6.53;2.55;;;21.00;65.00;;;;;;5008865;28;20037;-64
2022/06/29 11:05:04;;;;;;;4.80;2.20;;;21.10;63.80;;;;;;5008330;28;20033;-64
2022/06/29 11:12:58;;;;;;;5.80;2.35;;;21.10;63.90;;;;;;5008357;28;20125;-64
2022/06/29 11:15:39;;;;;;;5.28;2.60;;;21.20;63.90;;;;;;5007623;28;20133;-64
2022/06/29 11:18:11;;;;;;;4.88;2.30;;;21.20;63.80;;;;;;5007099;28;20449;-64
2022/06/29 11:20:36;;;;;;;5.10;2.20;;;21.20;64.00;;;;;;5008199;28;20030;-64
2022/06/29 11:23:02;;;;;;;7.10;2.33;;;21.30;63.70;;;;;;5008900;28;20092;-64
2022/06/29 11:25:35;;;;;;;5.28;2.35;;;21.30;63.90;;;;;;5008571;28;20022;-64
2022/06/29 11:28:00;;;;;;;4.10;2.03;;;21.30;63.90;;;;;;5004831;28;20069;-64
2022/06/29 11:30:26;;;;;;;4.50;2.10;;;21.30;63.80;;;;;;5009878;28;20042;-64
2022/06/29 11:32:51;;;;;;;6.00;2.30;;;21.30;63.80;;;;;;5007649;28;20076;-64
2022/06/29 11:35:21;;;;;;;4.63;2.15;;;21.30;63.90;;;;;;5008516;28;20045;-64
2022/06/29 11:38:01;;;;;;;4.22;2.28;;;21.30;63.80;;;;;;5008031;28;20105;-64
2022/06/29 11:40:34;;;;;;;4.90;2.00;;;21.40;64.10;;;;;;5006877;28;20109;-64
2022/06/29 11:43:04;;;;;;;5.68;2.17;;;21.30;64.00;;;;;;5008268;28;20065;-64
2022/06/29 11:45:46;;;;;;;5.13;1.98;;;21.30;64.20;;;;;;5006808;28;20022;-64
2022/06/29 11:48:16;;;;;;;4.28;2.00;;;21.30;64.40;;;;;;5008620;28;20045;-64
2022/06/29 11:50:53;;;;;;;5.75;2.22;;;21.30;64.40;;;;;;5006008;28;21182;-64
2022/06/29 11:53:47;;;;;;;4.70;2.30;;;21.30;64.60;;;;;;5005509;28;20402;-64
2022/06/29 11:56:17;;;;;;;3.97;1.90;;;21.30;64.60;;;;;;5007487;28;20030;-64
2022/06/29 11:58:49;;;;;;;5.03;2.17;;;21.30;64.50;;;;;;5006199;28;20079;-64
2022/06/29 12:01:16;;;;;;;4.97;1.98;;;21.30;64.60;;;;;;5006112;28;20041;-64
2022/06/29 12:03:51;;;;;;;6.30;2.00;;;21.30;64.70;;;;;;5007552;28;20033;-64
2022/06/29 12:06:17;;;;;;;5.25;2.33;;;21.30;64.70;;;;;;5006864;28;20406;-64
2022/06/29 12:08:42;;;;;;;6.70;2.10;;;21.30;64.70;;;;;;5006314;28;20032;-64
2022/06/29 12:11:08;;;;;;;4.30;2.10;;;21.30;64.80;;;;;;5008098;28;20038;-64
2022/06/29 12:13:34;;;;;;;4.30;2.00;;;21.30;64.90;;;;;;5009555;28;20032;-64
2022/06/29 12:15:59;;;;;;;4.10;1.80;;;21.30;64.90;;;;;;5006446;28;20510;-63
2022/06/29 12:18:25;;;;;;;4.53;2.10;;;21.40;64.70;;;;;;5008059;28;20479;-64
2022/06/29 12:20:51;;;;;;;4.72;2.00;;;21.40;64.50;;;;;;5010032;28;20487;-64
2022/06/29 12:23:17;;;;;;;4.32;1.77;;;21.40;64.40;;;;;;5006445;28;20438;-64
2022/06/29 12:25:43;;;;;;;4.50;2.03;;;21.40;64.20;;;;;;5006645;28;20031;-64
2022/06/29 12:28:09;;;;;;;4.10;1.80;;;21.40;64.40;;;;;;5008461;28;20045;-64
2022/06/29 12:30:35;;;;;;;4.47;1.75;;;21.40;64.40;;;;;;5006667;28;20507;-64
2022/06/29 12:33:02;;;;;;;4.07;1.80;;;21.40;64.50;;;;;;5006616;28;20113;-64
2022/06/29 12:35:28;;;;;;;4.35;1.90;;;21.40;64.20;;;;;;5006866;28;20072;-64
2022/06/29 12:37:57;;;;;;;5.93;2.20;;;21.40;64.50;;;;;;5007365;28;20036;-64
2022/06/29 12:40:26;;;;;;;2.85;1.70;;;21.40;64.30;;;;;;5002896;28;20026;-64
2022/06/29 12:42:52;;;;;;;4.75;2.00;;;21.40;64.20;;;;;;5004471;28;20030;-64
2022/06/29 12:45:18;;;;;;;5.35;2.10;;;21.50;64.30;;;;;;5003701;28;20117;-64
2022/06/29 12:47:44;;;;;;;4.70;2.00;;;21.50;64.40;;;;;;5007784;28;20464;-64
2022/06/29 12:50:10;;;;;;;4.50;1.88;;;21.50;64.40;;;;;;5005572;28;20034;-64
2022/06/29 12:52:40;;;;;;;5.25;1.90;;;21.50;64.50;;;;;;5005995;28;20077;-64
2022/06/29 12:55:07;;;;;;;5.93;1.92;;;21.40;64.30;;;;;;5009141;28;20061;-64
2022/06/29 12:57:33;;;;;;;5.07;1.85;;;21.40;64.40;;;;;;5006105;28;20026;-64
2022/06/29 12:59:58;;;;;;;3.97;1.88;;;21.50;64.50;;;;;;5007220;28;20040;-64
2022/06/29 13:02:24;;;;;;;4.80;1.90;;;21.50;64.50;;;;;;5004016;28;20033;-64
2022/06/29 13:04:50;;;;;;;3.80;1.73;;;21.50;64.40;;;;;;5006096;28;20040;-64
2022/06/29 13:07:15;;;;;;;4.00;1.70;;;21.50;64.40;;;;;;5004401;28;20072;-64
2022/06/29 13:09:41;;;;;;;4.70;2.00;;;21.50;64.30;;;;;;5003928;28;20049;-64